Time;durP1;ratioP1;P1;durP2;ratioP2;P2;SDS_P1;SDS_P2;PMS_P1;PMS_P2;Temp;Humidity;BMP_temperature;BMP_pressure;BME280_temperature;BME280_humidity;BME280_pressure;Samples;Min_cycle;Max_cycle;Signal;HPM_P1;HPM_P2
2023/04/06 00:01:40;;;;;;;18.05;10.63;;;1.90;99.90;;;;;;5011850;28;20865;-79
2023/04/06 00:04:05;;;;;;;20.63;9.95;;;1.90;99.90;;;;;;5003274;28;20030;-79
2023/04/06 00:06:31;;;;;;;16.60;10.77;;;2.10;99.90;;;;;;5011819;28;20489;-79
2023/04/06 00:08:57;;;;;;;15.35;9.70;;;1.60;99.90;;;;;;5001378;28;20076;-79
2023/04/06 00:11:23;;;;;;;21.92;10.05;;;1.80;99.90;;;;;;4994073;28;20063;-80
2023/04/06 00:13:48;;;;;;;18.30;10.02;;;1.70;99.90;;;;;;4999743;28;20124;-79
2023/04/06 00:16:14;;;;;;;20.60;11.40;;;1.70;99.90;;;;;;5012067;28;20045;-79
2023/04/06 00:18:40;;;;;;;19.08;9.88;;;2.30;99.90;;;;;;5015211;28;20037;-78
2023/04/06 00:21:05;;;;;;;19.02;10.90;;;2.50;99.90;;;;;;5013573;28;20091;-79
2023/04/06 00:23:31;;;;;;;20.73;10.38;;;1.60;99.90;;;;;;5012866;28;20037;-79
2023/04/06 00:25:57;;;;;;;21.15;11.07;;;2.50;99.90;;;;;;4997709;28;20042;-78
2023/04/06 00:28:26;;;;;;;18.35;8.70;;;1.40;99.90;;;;;;5003852;28;20041;-78
2023/04/06 00:30:55;;;;;;;15.77;10.98;;;1.50;99.90;;;;;;5014241;28;20398;-78
2023/04/06 00:33:21;;;;;;;17.48;10.63;;;1.30;99.90;;;;;;5003400;28;20037;-78
2023/04/06 00:35:46;;;;;;;19.02;10.77;;;1.00;99.90;;;;;;4996672;28;20033;-78
2023/04/06 00:38:12;;;;;;;19.58;10.85;;;1.30;99.90;;;;;;5006182;28;20084;-78
2023/04/06 00:40:39;;;;;;;17.88;11.65;;;1.70;99.90;;;;;;5030691;28;20026;-78
2023/04/06 00:43:10;;;;;;;17.92;11.00;;;1.00;99.90;;;;;;5004566;28;20030;-79
2023/04/06 00:45:37;;;;;;;15.63;10.43;;;1.20;99.90;;;;;;5006005;28;20033;-78
2023/04/06 00:48:03;;;;;;;18.50;11.18;;;1.20;99.90;;;;;;5020807;28;20635;-78
2023/04/06 00:50:29;;;;;;;24.90;10.98;;;1.40;99.90;;;;;;5002751;28;20029;-79
2023/04/06 00:52:55;;;;;;;16.60;10.05;;;1.50;99.90;;;;;;5003316;28;20060;-79
2023/04/06 00:55:20;;;;;;;22.35;10.70;;;1.00;99.90;;;;;;5007771;28;20125;-78
2023/04/06 00:57:47;;;;;;;17.52;11.02;;;0.90;99.90;;;;;;5006364;28;20534;-78
2023/04/06 01:00:13;;;;;;;17.17;10.50;;;0.80;99.90;;;;;;5028501;28;20030;-78
2023/04/06 01:02:39;;;;;;;16.67;10.07;;;0.90;99.90;;;;;;5017461;28;20042;-78
2023/04/06 01:05:05;;;;;;;20.45;11.30;;;1.70;99.90;;;;;;5003593;28;20079;-79
2023/04/06 01:07:30;;;;;;;15.00;10.30;;;0.70;99.90;;;;;;5017322;28;20022;-78
2023/04/06 01:09:56;;;;;;;20.35;11.02;;;1.20;99.90;;;;;;5015436;28;20060;-79
2023/04/06 01:12:22;;;;;;;16.35;10.60;;;0.50;99.90;;;;;;5016403;28;20029;-79
2023/04/06 01:14:47;;;;;;;17.02;10.38;;;0.50;99.90;;;;;;5017824;28;20106;-79
2023/04/06 01:17:13;;;;;;;16.40;10.18;;;0.30;99.90;;;;;;5007779;28;20057;-80
2023/04/06 01:19:40;;;;;;;17.83;10.35;;;0.40;99.90;;;;;;5022293;28;20385;-79
2023/04/06 01:22:06;;;;;;;17.08;10.75;;;0.40;99.90;;;;;;5006942;28;20029;-79
2023/04/06 01:24:31;;;;;;;23.13;11.73;;;1.00;99.90;;;;;;5004193;28;20490;-79
2023/04/06 01:26:57;;;;;;;16.20;10.60;;;0.50;99.90;;;;;;5001148;28;20478;-79
2023/04/06 01:29:23;;;;;;;19.42;11.63;;;0.50;99.90;;;;;;5005885;28;20029;-79
2023/04/06 01:31:48;;;;;;;17.98;10.73;;;1.60;99.90;;;;;;4999953;28;20060;-78
2023/04/06 01:34:14;;;;;;;22.38;11.02;;;0.40;99.90;;;;;;5000159;28;20567;-80
2023/04/06 01:36:40;;;;;;;21.98;11.93;;;0.30;99.90;;;;;;5021381;28;20036;-78
2023/04/06 01:39:06;;;;;;;17.67;11.40;;;0.30;99.90;;;;;;5004423;28;20029;-79
2023/04/06 01:41:31;;;;;;;21.25;10.45;;;1.10;99.90;;;;;;5013329;28;20490;-78
2023/04/06 01:43:57;;;;;;;20.58;11.02;;;0.20;99.90;;;;;;5033164;28;20537;-80
2023/04/06 01:46:22;;;;;;;17.52;10.20;;;0.10;99.90;;;;;;5024353;28;20092;-79
2023/04/06 01:48:48;;;;;;;17.13;10.23;;;-0.30;99.90;;;;;;5021131;28;20042;-80
2023/04/06 01:51:14;;;;;;;17.70;11.23;;;0.40;99.90;;;;;;4997432;28;20033;-79
2023/04/06 01:53:40;;;;;;;19.23;11.48;;;0.20;99.90;;;;;;4998939;28;20041;-78
2023/04/06 01:56:06;;;;;;;20.40;10.85;;;0.30;99.90;;;;;;5022485;28;20037;-80
2023/04/06 01:58:32;;;;;;;16.27;10.98;;;0.20;99.90;;;;;;4999151;28;20067;-79
2023/04/06 02:00:57;;;;;;;17.95;10.45;;;0.10;99.90;;;;;;5007261;28;20049;-78
2023/04/06 02:03:23;;;;;;;17.45;10.93;;;0.00;99.90;;;;;;5015401;28;20107;-79
2023/04/06 02:05:48;;;;;;;21.90;11.55;;;-0.10;99.90;;;;;;5001353;28;20481;-78
2023/04/06 02:08:14;;;;;;;20.77;12.15;;;-0.20;99.90;;;;;;5000736;28;20033;-79
2023/04/06 02:10:40;;;;;;;21.98;11.77;;;0.90;99.90;;;;;;5029736;28;20087;-79
2023/04/06 02:13:05;;;;;;;20.73;12.50;;;0.70;99.90;;;;;;5002316;28;20052;-79
2023/04/06 02:15:31;;;;;;;17.73;11.23;;;-0.20;99.90;;;;;;5017162;28;20037;-79
2023/04/06 02:17:57;;;;;;;21.35;12.05;;;0.40;99.90;;;;;;5023988;28;20037;-79
2023/04/06 02:20:22;;;;;;;18.33;11.10;;;-0.10;99.90;;;;;;4999562;28;20883;-79
2023/04/06 02:22:48;;;;;;;21.38;11.93;;;0.50;99.90;;;;;;5005346;28;20045;-79
2023/04/06 02:25:14;;;;;;;19.00;10.85;;;0.10;99.90;;;;;;5015096;28;20034;-79
2023/04/06 02:27:39;;;;;;;21.48;12.10;;;-0.50;99.90;;;;;;5019371;28;20490;-82
2023/04/06 02:30:06;;;;;;;19.55;11.57;;;-0.10;99.90;;;;;;5018934;28;20026;-83
2023/04/06 02:32:31;;;;;;;18.67;11.48;;;0.00;99.90;;;;;;4996818;28;20049;-82
2023/04/06 02:34:57;;;;;;;24.75;12.07;;;-0.10;99.90;;;;;;5017854;28;20026;-81
2023/04/06 02:37:23;;;;;;;24.50;13.93;;;-0.20;99.90;;;;;;5023124;28;20026;-79
2023/04/06 02:39:49;;;;;;;20.42;12.20;;;-0.20;99.90;;;;;;5004260;28;20479;-79
2023/04/06 02:42:15;;;;;;;20.92;10.93;;;1.20;99.90;;;;;;5009405;28;20026;-79
2023/04/06 02:44:42;;;;;;;19.67;12.60;;;-0.20;99.90;;;;;;5021831;28;20137;-80
2023/04/06 02:47:07;;;;;;;21.75;11.38;;;0.30;99.90;;;;;;5002740;28;20032;-79
2023/04/06 02:49:33;;;;;;;22.45;13.20;;;0.50;99.90;;;;;;5020602;28;20113;-80
2023/04/06 02:51:59;;;;;;;22.52;12.32;;;0.50;99.90;;;;;;5007205;28;20026;-79
2023/04/06 02:54:25;;;;;;;26.80;12.20;;;0.00;99.90;;;;;;5002949;28;20048;-79
2023/04/06 02:56:50;;;;;;;23.15;12.55;;;-0.20;99.90;;;;;;5020080;28;20524;-79
2023/04/06 02:59:16;;;;;;;23.23;13.30;;;-0.20;99.90;;;;;;5008527;28;20026;-78
2023/04/06 03:01:41;;;;;;;22.08;12.60;;;0.10;99.90;;;;;;5018087;28;20030;-79
2023/04/06 03:04:07;;;;;;;22.88;12.50;;;-0.30;99.90;;;;;;5019249;28;20571;-79
2023/04/06 03:06:32;;;;;;;20.13;11.68;;;-0.20;99.90;;;;;;5014312;28;20072;-79
2023/04/06 03:08:58;;;;;;;19.42;11.93;;;-0.20;99.90;;;;;;5009201;28;20037;-79
2023/04/06 03:11:26;;;;;;;22.63;11.82;;;-0.30;99.90;;;;;;5010713;28;20076;-79
2023/04/06 03:13:52;;;;;;;24.30;13.70;;;-0.30;99.90;;;;;;5021176;28;20038;-79
2023/04/06 03:16:17;;;;;;;22.70;13.00;;;0.10;99.90;;;;;;5003106;28;20088;-78
2023/04/06 03:18:44;;;;;;;19.77;11.93;;;-0.20;99.90;;;;;;5023716;28;20074;-79
2023/04/06 03:21:10;;;;;;;24.90;13.32;;;-0.50;99.90;;;;;;5005622;28;20036;-78
2023/04/06 03:23:36;;;;;;;21.17;13.15;;;0.80;99.90;;;;;;5024885;28;20038;-80
2023/04/06 03:26:02;;;;;;;21.13;12.35;;;-0.20;99.90;;;;;;5004875;28;20033;-80
2023/04/06 03:28:28;;;;;;;27.67;14.25;;;-0.40;99.90;;;;;;5009454;28;20041;-80
2023/04/06 03:30:53;;;;;;;28.35;13.15;;;0.70;99.90;;;;;;5018611;28;20041;-80
2023/04/06 03:33:19;;;;;;;23.00;13.32;;;-0.40;99.90;;;;;;5008547;28;20134;-80
2023/04/06 03:35:47;;;;;;;24.10;13.30;;;-0.10;99.90;;;;;;5001971;28;20029;-80
2023/04/06 03:38:13;;;;;;;23.00;12.60;;;-0.50;99.90;;;;;;5005163;28;20040;-80
2023/04/06 03:40:38;;;;;;;22.33;12.98;;;-0.80;99.90;;;;;;5015403;28;20038;-79
2023/04/06 03:43:04;;;;;;;25.15;12.75;;;-0.50;99.90;;;;;;5020039;28;20026;-80
2023/04/06 03:45:30;;;;;;;23.50;12.95;;;-0.80;99.90;;;;;;5002607;28;20034;-80
2023/04/06 03:47:56;;;;;;;23.25;12.57;;;-0.50;99.90;;;;;;5004695;28;20034;-80
2023/04/06 03:50:21;;;;;;;21.95;12.35;;;-0.60;99.90;;;;;;5021520;28;20072;-80
2023/04/06 03:52:47;;;;;;;21.25;11.63;;;-0.40;99.90;;;;;;5001448;28;20067;-80
2023/04/06 03:55:12;;;;;;;20.85;12.02;;;-0.60;99.90;;;;;;5007230;28;20731;-81
2023/04/06 03:57:38;;;;;;;19.40;11.98;;;-0.70;99.90;;;;;;5025617;28;20057;-80
2023/04/06 04:00:04;;;;;;;20.98;12.48;;;-0.50;99.90;;;;;;5008679;28;20041;-80
2023/04/06 04:02:30;;;;;;;17.75;11.15;;;-0.40;99.90;;;;;;5011767;28;20381;-79
2023/04/06 04:04:59;;;;;;;22.67;12.65;;;0.20;99.90;;;;;;5002715;28;20018;-79
2023/04/06 04:07:25;;;;;;;26.25;12.43;;;-0.60;99.90;;;;;;5018966;28;20032;-81
2023/04/06 04:09:50;;;;;;;23.15;11.77;;;0.40;99.90;;;;;;5001495;28;20021;-80
2023/04/06 04:12:16;;;;;;;21.05;11.52;;;-0.80;99.90;;;;;;5012511;28;20029;-80
2023/04/06 04:14:42;;;;;;;20.50;11.38;;;-0.50;99.90;;;;;;5022546;28;20041;-80
2023/04/06 04:17:08;;;;;;;22.17;13.65;;;-0.70;99.90;;;;;;5021646;28;20052;-78
2023/04/06 04:19:33;;;;;;;20.92;12.35;;;-0.60;99.90;;;;;;5020255;28;20120;-79
2023/04/06 04:21:59;;;;;;;23.55;12.80;;;-0.50;99.90;;;;;;5010648;28;20386;-78
2023/04/06 04:24:25;;;;;;;21.00;12.05;;;-0.20;99.90;;;;;;5021203;28;20029;-79
2023/04/06 04:26:50;;;;;;;19.40;11.40;;;-0.80;99.90;;;;;;5024745;28;20406;-79
2023/04/06 04:29:16;;;;;;;23.17;12.38;;;0.10;99.90;;;;;;5010038;28;20092;-79
2023/04/06 04:31:42;;;;;;;19.83;11.85;;;0.80;99.90;;;;;;5005703;28;20160;-79
2023/04/06 04:34:07;;;;;;;20.48;11.32;;;-0.90;99.90;;;;;;5023158;28;20030;-78
2023/04/06 04:36:33;;;;;;;24.65;11.57;;;-1.20;99.90;;;;;;5003987;28;20064;-79
2023/04/06 04:39:01;;;;;;;23.90;11.45;;;0.30;99.90;;;;;;5029362;28;20045;-78
2023/04/06 04:41:26;;;;;;;20.30;11.80;;;-0.10;99.90;;;;;;5007450;28;20041;-78
2023/04/06 04:43:52;;;;;;;18.52;12.05;;;-1.10;99.90;;;;;;5019842;28;20065;-78
2023/04/06 04:46:17;;;;;;;19.00;11.85;;;-1.10;99.90;;;;;;5019352;28;20034;-79
2023/04/06 04:48:43;;;;;;;27.30;13.07;;;-1.00;99.90;;;;;;5018557;28;20083;-80
2023/04/06 04:51:09;;;;;;;23.42;12.00;;;-0.20;99.90;;;;;;5006230;28;20041;-79
2023/04/06 04:53:34;;;;;;;18.85;11.90;;;-0.60;99.90;;;;;;5024867;28;20394;-79
2023/04/06 04:56:00;;;;;;;19.52;11.98;;;-0.80;99.90;;;;;;5021386;28;20026;-80
2023/04/06 04:58:26;;;;;;;22.52;13.35;;;-1.10;99.90;;;;;;5021472;28;20560;-80
2023/04/06 05:00:51;;;;;;;21.38;11.95;;;-1.20;99.90;;;;;;5022198;28;21112;-79
2023/04/06 05:03:20;;;;;;;20.52;12.43;;;-1.00;99.90;;;;;;5011204;28;20064;-80
2023/04/06 05:05:45;;;;;;;25.08;12.18;;;-1.10;99.90;;;;;;5005217;28;20576;-80
2023/04/06 05:08:11;;;;;;;22.80;12.73;;;-0.70;99.90;;;;;;5010224;28;20030;-81
2023/04/06 05:10:37;;;;;;;21.70;12.52;;;-0.60;99.90;;;;;;4999343;28;20037;-80
2023/04/06 05:13:03;;;;;;;22.17;12.13;;;-1.00;99.90;;;;;;5022281;28;20033;-80
2023/04/06 05:15:28;;;;;;;19.33;10.80;;;-1.00;99.90;;;;;;5010599;28;20182;-80
2023/04/06 05:17:54;;;;;;;24.60;11.93;;;-0.30;99.90;;;;;;5004238;28;20026;-78
2023/04/06 05:20:19;;;;;;;23.23;12.27;;;-0.90;99.90;;;;;;5019675;28;20053;-79
2023/04/06 05:22:45;;;;;;;24.58;12.25;;;-0.10;99.90;;;;;;5010804;28;20037;-79
2023/04/06 05:25:11;;;;;;;21.95;13.40;;;0.10;99.90;;;;;;5022325;28;20045;-79
2023/04/06 05:27:36;;;;;;;21.10;12.38;;;-0.80;99.90;;;;;;5022322;28;20030;-79
2023/04/06 05:30:02;;;;;;;19.00;12.13;;;0.70;99.90;;;;;;5017523;28;20440;-79
2023/04/06 05:32:28;;;;;;;22.60;12.43;;;-0.60;99.90;;;;;;5019806;28;20127;-80
2023/04/06 05:34:53;;;;;;;21.48;12.48;;;-0.70;99.90;;;;;;5001725;28;20667;-79
2023/04/06 05:37:19;;;;;;;21.75;12.25;;;-0.50;99.90;;;;;;5022071;28;20029;-80
2023/04/06 05:39:45;;;;;;;20.30;11.30;;;-0.40;99.90;;;;;;5004880;28;20439;-80
2023/04/06 05:42:11;;;;;;;18.33;10.93;;;-0.50;99.90;;;;;;5020585;28;20040;-79
2023/04/06 05:44:37;;;;;;;18.75;10.70;;;-0.40;99.90;;;;;;5020178;28;20038;-80
2023/04/06 05:47:03;;;;;;;17.30;10.82;;;-0.30;99.90;;;;;;5023329;28;20474;-80
2023/04/06 05:49:28;;;;;;;22.30;11.68;;;0.00;99.90;;;;;;5002907;28;20034;-78
2023/04/06 05:51:54;;;;;;;18.58;11.38;;;0.10;99.90;;;;;;5004670;28;20061;-77
2023/04/06 05:54:20;;;;;;;19.42;11.55;;;0.00;99.90;;;;;;5017133;28;20029;-79
2023/04/06 05:56:46;;;;;;;22.25;11.05;;;0.00;99.90;;;;;;5021893;28;20454;-79
2023/04/06 05:59:11;;;;;;;20.15;11.77;;;0.20;99.90;;;;;;5014327;28;20034;-78
2023/04/06 06:01:37;;;;;;;20.92;10.75;;;0.30;99.90;;;;;;5021360;28;20030;-78
2023/04/06 06:04:03;;;;;;;16.80;10.55;;;0.50;99.90;;;;;;5017403;28;20030;-78
2023/04/06 06:06:32;;;;;;;17.25;10.85;;;0.70;99.90;;;;;;5004380;28;20045;-78
2023/04/06 06:09:02;;;;;;;17.10;9.93;;;0.80;99.90;;;;;;5006396;28;20428;-78
2023/04/06 06:11:28;;;;;;;19.33;10.93;;;0.90;99.90;;;;;;5016915;28;20136;-77
2023/04/06 06:13:53;;;;;;;16.65;10.38;;;1.50;99.90;;;;;;5018613;28;20591;-79
2023/04/06 06:16:19;;;;;;;16.55;9.68;;;1.10;99.90;;;;;;5002746;28;20410;-80
2023/04/06 06:18:45;;;;;;;16.60;10.30;;;1.80;99.90;;;;;;5015146;28;20029;-79
2023/04/06 06:21:13;;;;;;;16.50;9.43;;;1.40;99.90;;;;;;5001142;28;20049;-80
2023/04/06 06:23:39;;;;;;;16.05;10.02;;;1.40;99.90;;;;;;4995517;28;20040;-78
2023/04/06 06:26:05;;;;;;;15.50;10.20;;;1.60;99.90;;;;;;5003942;28;20034;-79
2023/04/06 06:28:31;;;;;;;18.27;9.98;;;1.50;99.90;;;;;;5000815;28;20034;-79
2023/04/06 06:30:56;;;;;;;16.58;9.50;;;1.80;99.90;;;;;;5018749;28;20030;-79
2023/04/06 06:33:23;;;;;;;19.42;9.85;;;2.20;99.90;;;;;;5002319;28;20072;-79
2023/04/06 06:35:51;;;;;;;16.42;9.50;;;2.00;99.90;;;;;;5013254;28;20030;-79
2023/04/06 06:38:17;;;;;;;19.10;9.85;;;2.10;99.90;;;;;;5014137;28;20041;-78
2023/04/06 06:40:42;;;;;;;16.23;9.52;;;3.40;99.90;;;;;;5000511;28;20034;-78
2023/04/06 06:43:08;;;;;;;14.57;8.52;;;2.50;99.90;;;;;;5014198;28;20401;-78
2023/04/06 06:45:34;;;;;;;11.30;6.50;;;2.70;99.90;;;;;;5006370;28;20029;-78
2023/04/06 06:48:00;;;;;;;11.70;7.15;;;2.90;99.90;;;;;;5017000;28;20650;-79
2023/04/06 06:50:25;;;;;;;8.52;5.72;;;3.50;99.90;;;;;;5021109;28;20060;-78
2023/04/06 06:52:51;;;;;;;11.48;6.65;;;3.30;99.90;;;;;;5013726;28;20029;-78
2023/04/06 06:55:18;;;;;;;12.73;7.40;;;3.40;99.90;;;;;;5014250;28;20120;-78
2023/04/06 06:57:47;;;;;;;15.85;5.85;;;3.70;99.90;;;;;;5013879;28;20037;-78
2023/04/06 07:00:14;;;;;;;12.70;6.88;;;4.10;99.90;;;;;;5012813;28;20037;-79
2023/04/06 07:02:39;;;;;;;11.05;6.25;;;4.00;99.90;;;;;;5016558;28;20088;-78
2023/04/06 07:05:05;;;;;;;8.02;5.85;;;4.10;99.90;;;;;;5029961;28;20026;-79
2023/04/06 07:07:32;;;;;;;11.65;6.43;;;4.40;99.90;;;;;;4990154;28;20028;-79
2023/04/06 07:09:58;;;;;;;15.40;6.82;;;4.50;99.90;;;;;;5021014;28;20061;-78
2023/04/06 07:12:23;;;;;;;13.45;7.03;;;4.80;99.90;;;;;;5022981;28;20488;-78
2023/04/06 07:14:49;;;;;;;10.88;6.60;;;4.70;99.90;;;;;;5000296;28;20025;-77
2023/04/06 07:17:14;;;;;;;13.68;7.15;;;4.80;99.90;;;;;;4987602;28;20065;-78
2023/04/06 07:19:40;;;;;;;10.75;5.53;;;4.60;99.90;;;;;;5017472;28;20026;-80
2023/04/06 07:22:06;;;;;;;10.40;6.57;;;6.20;99.90;;;;;;5030259;28;20034;-79
2023/04/06 07:24:32;;;;;;;10.40;6.03;;;5.70;99.90;;;;;;5030774;28;20113;-79
2023/04/06 07:26:58;;;;;;;12.40;5.32;;;5.60;99.90;;;;;;5000013;28;20466;-78
2023/04/06 07:29:24;;;;;;;12.02;6.68;;;5.70;99.90;;;;;;5024421;28;20038;-79
2023/04/06 07:31:50;;;;;;;9.85;5.82;;;6.10;99.90;;;;;;5012650;28;20453;-77
2023/04/06 07:34:15;;;;;;;10.70;6.13;;;6.80;99.90;;;;;;4993769;28;20117;-79
2023/04/06 07:36:41;;;;;;;15.23;7.40;;;6.40;99.90;;;;;;5010807;28;20104;-78
2023/04/06 07:39:07;;;;;;;11.30;7.15;;;6.90;99.90;;;;;;5000161;28;20548;-78
2023/04/06 07:41:32;;;;;;;9.07;6.32;;;7.20;99.90;;;;;;5006978;28;20037;-77
2023/04/06 07:43:58;;;;;;;13.73;7.30;;;6.60;99.90;;;;;;5021412;28;20324;-78
2023/04/06 07:46:24;;;;;;;12.95;7.88;;;6.90;99.90;;;;;;5019690;28;20393;-78
2023/04/06 07:48:50;;;;;;;12.48;6.85;;;7.30;99.90;;;;;;5013942;28;20113;-78
2023/04/06 07:51:17;;;;;;;9.27;6.22;;;7.20;99.90;;;;;;4999321;28;20093;-78
2023/04/06 07:53:44;;;;;;;11.93;6.95;;;7.40;99.90;;;;;;5001071;28;20514;-79
2023/04/06 07:56:10;;;;;;;11.27;5.88;;;7.60;99.90;;;;;;5009764;28;20501;-80
2023/04/06 07:58:36;;;;;;;10.88;6.72;;;8.00;99.90;;;;;;5011970;28;20071;-79
2023/04/06 08:01:01;;;;;;;14.25;6.78;;;8.20;99.90;;;;;;5004151;28;20061;-78
2023/04/06 08:03:27;;;;;;;9.25;5.18;;;8.30;99.90;;;;;;5017009;28;20496;-79
2023/04/06 08:05:53;;;;;;;11.70;6.45;;;8.50;99.90;;;;;;5024124;28;20658;-77
2023/04/06 08:08:19;;;;;;;13.38;7.15;;;8.50;99.90;;;;;;5001030;28;20760;-78
2023/04/06 08:10:45;;;;;;;10.48;6.78;;;9.10;99.90;;;;;;5002682;28;20046;-77
2023/04/06 08:13:10;;;;;;;16.95;8.13;;;8.70;99.90;;;;;;5016830;28;20067;-77
2023/04/06 08:15:36;;;;;;;11.57;7.38;;;9.00;99.90;;;;;;4997317;28;20394;-77
2023/04/06 08:18:02;;;;;;;8.98;6.22;;;10.20;99.90;;;;;;5008639;28;20036;-78
2023/04/06 08:20:27;;;;;;;10.65;5.43;;;9.40;99.90;;;;;;5004403;28;20038;-77
2023/04/06 08:22:53;;;;;;;13.30;6.95;;;9.70;99.90;;;;;;5003388;28;20386;-77
2023/04/06 08:25:19;;;;;;;9.18;6.47;;;9.70;99.90;;;;;;5001539;28;20030;-77
2023/04/06 08:27:45;;;;;;;13.75;7.07;;;9.60;99.90;;;;;;5004813;28;20038;-77
2023/04/06 08:30:11;;;;;;;14.40;7.47;;;10.10;99.90;;;;;;5016248;28;20063;-78
2023/04/06 08:32:36;;;;;;;10.77;6.18;;;10.30;99.90;;;;;;5018406;28;20041;-78
2023/04/06 08:35:02;;;;;;;11.82;7.68;;;10.20;99.90;;;;;;5013003;28;20061;-77
2023/04/06 08:37:30;;;;;;;12.25;6.10;;;10.50;99.90;;;;;;5006321;28;20064;-80
2023/04/06 08:39:59;;;;;;;12.48;7.28;;;10.60;99.90;;;;;;5001436;28;20029;-80
2023/04/06 08:42:40;;;;;;;16.50;9.00;;;10.60;99.90;;;;;;5000173;28;20520;-80
2023/04/06 08:45:06;;;;;;;12.35;6.43;;;10.60;99.90;;;;;;5012011;28;20505;-80
2023/04/06 08:47:32;;;;;;;14.02;7.70;;;10.70;99.90;;;;;;5001963;28;20056;-80
2023/04/06 08:49:58;;;;;;;13.90;8.27;;;10.90;99.90;;;;;;5011953;28;20029;-78
2023/04/06 08:52:23;;;;;;;12.32;7.03;;;11.00;99.90;;;;;;5023118;28;20063;-80
2023/04/06 08:54:51;;;;;;;12.63;8.38;;;10.60;99.90;;;;;;4988281;28;20034;-80
2023/04/06 08:57:18;;;;;;;14.20;7.75;;;11.50;99.90;;;;;;4987431;28;20037;-80
2023/04/06 08:59:46;;;;;;;10.93;6.88;;;11.60;99.90;;;;;;4986365;28;20034;-80
2023/04/06 09:02:16;;;;;;;17.48;8.13;;;12.00;99.90;;;;;;4997622;28;20080;-80
2023/04/06 09:04:42;;;;;;;9.48;6.03;;;11.00;98.70;;;;;;5005223;28;20083;-79
2023/04/06 09:07:08;;;;;;;11.80;7.07;;;11.70;99.80;;;;;;5004471;28;20489;-80
2023/04/06 09:09:33;;;;;;;11.48;7.38;;;11.90;98.40;;;;;;5001388;28;20029;-80
2023/04/06 09:12:05;;;;;;;10.82;7.10;;;11.90;96.80;;;;;;5007162;28;20127;-79
2023/04/06 09:14:37;;;;;;;11.48;8.18;;;12.10;97.60;;;;;;5016139;28;20041;-80
2023/04/06 09:17:03;;;;;;;13.80;5.97;;;12.10;96.90;;;;;;5009332;28;20080;-79
2023/04/06 09:19:29;;;;;;;11.23;6.82;;;12.20;98.30;;;;;;5006003;28;20038;-80
2023/04/06 09:22:07;;;;;;;9.38;6.55;;;12.50;97.00;;;;;;5033028;28;20055;-80
2023/04/06 09:24:46;;;;;;;16.08;10.25;;;12.70;97.30;;;;;;5019650;28;20406;-79
2023/04/06 09:27:12;;;;;;;11.68;7.55;;;12.80;93.70;;;;;;5006851;28;20032;-79
2023/04/06 09:29:38;;;;;;;11.23;7.45;;;12.90;95.90;;;;;;5000498;28;20049;-79
2023/04/06 09:32:04;;;;;;;18.58;10.55;;;12.90;96.30;;;;;;5000932;28;20026;-79
2023/04/06 09:34:30;;;;;;;14.80;8.93;;;13.00;92.20;;;;;;4999967;28;20034;-79
2023/04/06 09:36:56;;;;;;;22.25;11.38;;;13.40;90.70;;;;;;5001833;28;20034;-79
2023/04/06 09:39:23;;;;;;;17.65;8.50;;;13.90;92.40;;;;;;4998075;28;20052;-80
2023/04/06 09:41:50;;;;;;;12.93;7.13;;;13.70;95.90;;;;;;5015519;28;20065;-79
2023/04/06 09:44:16;;;;;;;13.40;8.07;;;13.90;94.50;;;;;;5003219;28;20041;-80
2023/04/06 09:46:45;;;;;;;13.27;8.50;;;14.20;92.20;;;;;;5030351;28;20088;-80
2023/04/06 09:49:12;;;;;;;15.82;7.35;;;14.30;93.20;;;;;;5027994;28;20033;-80
2023/04/06 09:51:38;;;;;;;19.08;9.90;;;14.30;96.70;;;;;;5008246;28;20125;-78
2023/04/06 09:54:04;;;;;;;19.90;10.25;;;14.90;90.90;;;;;;5024448;28;20061;-78
2023/04/06 09:57:02;;;;;;;10.85;7.25;;;14.90;88.00;;;;;;4998644;28;20068;-78
2023/04/06 09:59:53;;;;;;;17.45;8.32;;;14.60;85.80;;;;;;5017382;28;20036;-78
2023/04/06 10:02:46;;;;;;;13.52;8.13;;;15.20;78.40;;;;;;5000017;28;20049;-79
2023/04/06 10:05:26;;;;;;;14.20;8.40;;;15.20;83.60;;;;;;5025625;28;20063;-79
2023/04/06 10:07:53;;;;;;;16.33;8.57;;;15.30;78.10;;;;;;5014529;28;20072;-78
2023/04/06 10:10:18;;;;;;;18.88;9.98;;;15.40;76.70;;;;;;5004318;28;20048;-78
2023/04/06 10:12:44;;;;;;;15.07;8.93;;;15.60;77.10;;;;;;5018003;28;20120;-78
2023/04/06 10:15:10;;;;;;;22.67;10.00;;;15.80;73.60;;;;;;5028807;28;20053;-79
2023/04/06 10:17:36;;;;;;;19.92;10.48;;;16.00;76.70;;;;;;5016621;28;20104;-78
2023/04/06 10:20:12;;;;;;;13.68;9.25;;;16.00;71.80;;;;;;5005366;28;20765;-79
2023/04/06 10:22:45;;;;;;;15.05;9.15;;;16.10;69.70;;;;;;5019459;28;20493;-78
2023/04/06 10:25:10;;;;;;;16.42;9.80;;;15.90;69.20;;;;;;5013020;28;20030;-78
2023/04/06 10:27:36;;;;;;;17.05;9.20;;;15.80;69.20;;;;;;5033179;28;20037;-78
2023/04/06 10:30:06;;;;;;;22.02;10.82;;;16.10;70.90;;;;;;5017764;28;20033;-79
2023/04/06 10:32:38;;;;;;;14.52;7.80;;;16.20;69.60;;;;;;5006133;28;20030;-78
2023/04/06 10:35:11;;;;;;;20.30;9.65;;;16.30;71.80;;;;;;5032237;28;20068;-78
2023/04/06 10:37:47;;;;;;;17.70;10.50;;;16.20;84.60;;;;;;5016679;28;20435;-79
2023/04/06 10:40:21;;;;;;;17.17;9.57;;;16.40;74.90;;;;;;5024312;28;20065;-78
2023/04/06 10:42:47;;;;;;;15.48;9.65;;;16.60;69.80;;;;;;5015719;28;20057;-78
2023/04/06 10:45:25;;;;;;;13.10;8.82;;;16.70;67.70;;;;;;5029636;28;20084;-79
2023/04/06 10:47:54;;;;;;;17.65;10.52;;;16.90;73.40;;;;;;5012475;28;20029;-78
2023/04/06 10:50:20;;;;;;;19.38;9.90;;;17.00;74.90;;;;;;5003599;28;20049;-79
2023/04/06 10:52:46;;;;;;;15.90;9.85;;;17.10;65.90;;;;;;5015949;28;20494;-79
2023/04/06 10:55:16;;;;;;;14.32;9.25;;;17.00;65.50;;;;;;5018581;28;20029;-79
2023/04/06 10:57:41;;;;;;;16.25;10.38;;;17.00;67.80;;;;;;5014274;28;20033;-79
2023/04/06 11:00:08;;;;;;;18.80;9.60;;;17.20;66.00;;;;;;4999552;28;20743;-79
2023/04/06 11:02:35;;;;;;;16.65;9.68;;;17.40;64.20;;;;;;5019410;28;20390;-79
2023/04/06 11:05:01;;;;;;;22.45;12.20;;;17.30;63.20;;;;;;5006605;28;20142;-78
2023/04/06 11:07:27;;;;;;;16.27;9.80;;;17.70;62.10;;;;;;5007208;28;20057;-79
2023/04/06 11:09:53;;;;;;;16.88;9.27;;;17.80;71.10;;;;;;4988539;28;20500;-79
2023/04/06 11:12:25;;;;;;;19.10;11.40;;;17.70;64.80;;;;;;5018966;28;20056;-79
2023/04/06 11:15:06;;;;;;;17.05;9.35;;;18.00;61.40;;;;;;5016685;28;20018;-78
2023/04/06 11:17:36;;;;;;;13.80;8.10;;;17.60;58.50;;;;;;5004350;28;20026;-79
2023/04/06 11:20:02;;;;;;;14.98;8.23;;;17.70;60.00;;;;;;5001763;28;20038;-79
2023/04/06 11:22:28;;;;;;;18.48;11.40;;;17.70;58.30;;;;;;5017597;28;20046;-79
2023/04/06 11:25:05;;;;;;;15.65;9.05;;;17.90;59.40;;;;;;5009901;28;20043;-78
2023/04/06 11:27:31;;;;;;;21.10;10.48;;;17.70;57.40;;;;;;5004664;28;20492;-78
2023/04/06 11:29:58;;;;;;;22.50;12.77;;;18.00;60.30;;;;;;5015071;28;20080;-77
2023/04/06 11:32:24;;;;;;;20.67;12.50;;;17.90;58.80;;;;;;5002520;28;20039;-78
2023/04/06 11:34:50;;;;;;;17.00;10.48;;;17.90;58.70;;;;;;5018017;28;20038;-78
2023/04/06 11:37:15;;;;;;;14.00;7.03;;;18.00;62.70;;;;;;5016877;28;20128;-80
2023/04/06 11:39:50;;;;;;;17.73;10.80;;;18.00;58.80;;;;;;5006438;28;20030;-78
2023/04/06 11:42:27;;;;;;;17.05;9.95;;;18.20;59.20;;;;;;5018488;28;20042;-78
2023/04/06 11:44:58;;;;;;;19.40;10.98;;;18.20;59.30;;;;;;5002671;28;20026;-79
2023/04/06 11:47:34;;;;;;;18.20;10.65;;;18.30;62.50;;;;;;4999903;28;20130;-79
2023/04/06 11:50:14;;;;;;;18.23;10.15;;;18.40;76.50;;;;;;4827529;28;10000957;-79
2023/04/06 11:52:40;;;;;;;19.52;11.98;;;18.30;60.90;;;;;;4665107;28;10000495;-78
2023/04/06 11:55:13;;;;;;;16.40;10.38;;;18.40;59.30;;;;;;4998331;28;20486;-78
2023/04/06 11:57:39;;;;;;;17.50;9.80;;;18.60;76.90;;;;;;5013007;28;20029;-79
2023/04/06 12:00:06;;;;;;;9.85;5.68;;;18.70;73.20;;;;;;5003786;28;20318;-78
2023/04/06 12:02:32;;;;;;;18.60;11.63;;;18.50;60.50;;;;;;5000618;28;20030;-78
2023/04/06 12:04:57;;;;;;;16.42;9.93;;;18.90;74.50;;;;;;4995725;28;21654;-77
2023/04/06 12:07:23;;;;;;;15.40;7.78;;;18.80;69.30;;;;;;5024053;28;20537;-78
2023/04/06 12:09:49;;;;;;;14.90;8.77;;;18.80;59.60;;;;;;4994234;28;20044;-78
2023/04/06 12:12:16;;;;;;;13.77;5.70;;;19.10;64.90;;;;;;4996960;28;20512;-78
2023/04/06 12:14:42;;;;;;;14.10;7.75;;;19.20;65.20;;;;;;5010785;28;20037;-78
2023/04/06 12:17:07;;;;;;;19.67;10.88;;;18.60;61.90;;;;;;5025099;28;20561;-78
2023/04/06 12:19:33;;;;;;;19.15;9.75;;;18.40;59.00;;;;;;4996890;28;20033;-78
2023/04/06 12:21:59;;;;;;;9.77;4.40;;;18.40;57.70;;;;;;4990118;28;20643;-80
2023/04/06 12:24:25;;;;;;;11.27;6.82;;;18.70;62.30;;;;;;4999713;28;20393;-80
2023/04/06 12:26:50;;;;;;;12.00;5.53;;;18.60;57.60;;;;;;5006100;28;20049;-79
2023/04/06 12:29:16;;;;;;;17.58;8.57;;;18.30;57.70;;;;;;5018146;28;20395;-78
2023/04/06 12:31:44;;;;;;;19.92;10.77;;;18.00;58.20;;;;;;5011864;28;20568;-79
2023/04/06 12:34:09;;;;;;;15.82;9.55;;;18.00;58.30;;;;;;4999068;28;20522;-79